createdAt,value
2017-12-22T00:00:23.392Z,74.03
2017-12-22T00:02:52.527Z,69.30
2017-12-22T00:05:21.346Z,71.40
2017-12-22T00:07:49.730Z,67.63
2017-12-22T00:10:18.068Z,68.97
2017-12-22T00:12:46.431Z,69.10
2017-12-22T00:15:14.765Z,61.10
2017-12-22T00:17:43.118Z,70.43
2017-12-22T00:20:11.481Z,68.53
2017-12-22T00:22:39.851Z,68.60
2017-12-22T00:25:08.188Z,73.23
2017-12-22T00:27:36.616Z,69.87
2017-12-22T00:30:05.935Z,64.13
2017-12-22T00:32:34.278Z,63.10
2017-12-22T00:35:03.409Z,55.60
2017-12-22T00:37:31.730Z,65.10
2017-12-22T00:40:00.148Z,54.03
2017-12-22T00:42:28.483Z,53.97
2017-12-22T00:44:56.841Z,55.83
2017-12-22T00:47:25.185Z,58.33
2017-12-22T00:49:53.533Z,59.93
2017-12-22T00:52:22.663Z,60.60
2017-12-22T00:54:50.997Z,56.90
2017-12-22T00:57:20.137Z,55.30
2017-12-22T00:59:48.468Z,49.13
2017-12-22T01:02:16.820Z,52.77
2017-12-22T01:04:45.162Z,49.33
2017-12-22T01:07:13.511Z,49.90
2017-12-22T01:09:41.843Z,55.77
2017-12-22T01:12:10.195Z,52.43
2017-12-22T01:14:38.700Z,49.57
2017-12-22T01:17:12.759Z,53.33
2017-12-22T01:19:41.128Z,54.67
2017-12-22T01:22:09.561Z,54.50
2017-12-22T01:24:38.096Z,52.10
2017-12-22T01:27:06.448Z,49.50
2017-12-22T01:29:34.792Z,56.43
2017-12-22T01:32:03.209Z,60.90
2017-12-22T01:34:31.612Z,64.47
2017-12-22T01:37:00.048Z,60.10
2017-12-22T01:39:28.505Z,56.93
2017-12-22T01:41:56.852Z,57.23
2017-12-22T01:44:25.203Z,54.77
2017-12-22T01:46:53.660Z,58.37
2017-12-22T01:49:22.056Z,58.60
2017-12-22T01:51:50.380Z,56.07
2017-12-22T01:54:19.496Z,58.53
2017-12-22T01:56:47.848Z,59.27
2017-12-22T01:59:16.246Z,58.53
2017-12-22T02:01:45.368Z,56.63
2017-12-22T02:04:13.713Z,60.30
2017-12-22T02:06:42.818Z,56.03
2017-12-22T02:09:11.930Z,55.80
2017-12-22T02:11:40.333Z,54.73
2017-12-22T02:14:08.670Z,60.50
2017-12-22T02:16:37.777Z,55.33
2017-12-22T02:19:06.884Z,56.07
2017-12-22T02:21:35.278Z,57.50
2017-12-22T02:24:03.627Z,54.53
2017-12-22T02:26:31.971Z,54.13
2017-12-22T02:29:00.426Z,62.13
2017-12-22T02:31:28.988Z,51.97
2017-12-22T02:33:57.348Z,52.10
2017-12-22T02:36:26.469Z,53.73
2017-12-22T02:38:54.855Z,52.83
2017-12-22T02:41:23.208Z,56.93
2017-12-22T02:43:51.564Z,49.20
2017-12-22T02:46:19.920Z,50.13
2017-12-22T02:48:48.630Z,51.80
2017-12-22T02:51:16.984Z,50.87
2017-12-22T02:53:45.358Z,56.63
2017-12-22T02:56:13.705Z,54.53
2017-12-22T02:58:42.045Z,55.80
2017-12-22T03:01:11.278Z,52.70
2017-12-22T03:03:39.662Z,58.90
2017-12-22T03:06:08.037Z,52.70
2017-12-22T03:08:36.608Z,50.27
2017-12-22T03:11:05.717Z,56.20
2017-12-22T03:13:34.101Z,50.37
2017-12-22T03:16:02.461Z,50.97
2017-12-22T03:18:30.810Z,54.80
2017-12-22T03:20:59.264Z,55.03
2017-12-22T03:23:27.608Z,55.20
2017-12-22T03:25:55.952Z,57.53
2017-12-22T03:28:24.384Z,53.57
2017-12-22T03:30:52.708Z,55.53
2017-12-22T03:33:21.055Z,57.20
2017-12-22T03:35:49.406Z,55.50
2017-12-22T03:38:17.765Z,55.10
2017-12-22T03:40:46.903Z,56.87
2017-12-22T03:43:15.287Z,56.90
2017-12-22T03:45:43.672Z,56.40
2017-12-22T03:48:12.016Z,49.47
2017-12-22T03:50:40.439Z,56.37
2017-12-22T03:53:08.879Z,56.07
2017-12-22T03:55:37.232Z,54.87
2017-12-22T03:58:05.580Z,57.67
2017-12-22T04:00:33.947Z,56.27
2017-12-22T04:03:02.329Z,54.37
2017-12-22T04:05:30.704Z,54.97
2017-12-22T04:07:59.247Z,54.17
2017-12-22T04:10:28.334Z,55.57
2017-12-22T04:12:57.495Z,50.50
2017-12-22T04:15:25.914Z,52.50
2017-12-22T04:17:55.060Z,57.13
2017-12-22T04:20:23.416Z,51.57
2017-12-22T04:22:51.763Z,58.10
2017-12-22T04:25:20.112Z,64.43
2017-12-22T04:27:48.452Z,58.13
2017-12-22T04:30:16.835Z,59.53
2017-12-22T04:32:45.221Z,60.40
2017-12-22T04:35:13.574Z,60.03
2017-12-22T04:37:42.713Z,56.60
2017-12-22T04:40:11.084Z,59.97
2017-12-22T04:42:39.427Z,63.23
2017-12-22T04:45:07.777Z,63.83
2017-12-22T04:47:36.210Z,62.83
2017-12-22T04:50:04.552Z,72.60
2017-12-22T04:52:33.700Z,69.40
2017-12-22T04:55:02.064Z,66.37
2017-12-22T04:57:30.413Z,73.63
2017-12-22T04:59:59.514Z,67.83
2017-12-22T05:02:27.868Z,66.03
2017-12-22T05:04:56.297Z,68.13
2017-12-22T05:07:24.625Z,67.53
2017-12-22T05:09:53.071Z,67.10
2017-12-22T05:12:21.421Z,64.27
2017-12-22T05:14:49.760Z,53.33
2017-12-22T05:17:18.127Z,49.07
2017-12-22T05:19:46.457Z,51.30
2017-12-22T05:22:14.852Z,48.13
2017-12-22T05:24:43.192Z,46.87
2017-12-22T05:27:12.297Z,45.73
2017-12-22T05:29:40.649Z,41.83
2017-12-22T05:32:09.082Z,48.03
2017-12-22T05:34:37.663Z,43.23
2017-12-22T05:37:05.992Z,43.00
2017-12-22T05:39:34.347Z,42.17
2017-12-22T05:42:02.713Z,40.07
2017-12-22T05:44:31.139Z,41.40
2017-12-22T05:46:59.479Z,39.07
2017-12-22T05:49:27.840Z,43.83
2017-12-22T05:51:56.316Z,36.97
2017-12-22T05:54:24.671Z,40.40
2017-12-22T05:56:53.807Z,47.47
2017-12-22T05:59:22.136Z,45.33
2017-12-22T06:01:51.349Z,41.27
2017-12-22T06:04:20.464Z,41.20
2017-12-22T06:06:48.808Z,43.20
2017-12-22T06:09:17.924Z,39.30
2017-12-22T06:11:46.264Z,36.70
2017-12-22T06:14:14.787Z,36.93
2017-12-22T06:16:43.192Z,34.23
2017-12-22T06:19:11.564Z,37.47
2017-12-22T06:21:39.915Z,36.23
2017-12-22T06:24:08.258Z,34.63
2017-12-22T06:26:36.611Z,33.83
2017-12-22T06:29:05.597Z,35.67
2017-12-22T06:31:34.196Z,31.73
2017-12-22T06:34:02.531Z,32.57
2017-12-22T06:36:31.692Z,31.20
2017-12-22T06:39:00.074Z,33.97
2017-12-22T06:41:28.420Z,31.60
2017-12-22T06:43:56.790Z,33.47
2017-12-22T06:46:25.244Z,34.23
2017-12-22T06:48:55.166Z,35.67
2017-12-22T06:51:23.556Z,36.63
2017-12-22T06:53:51.902Z,33.53
2017-12-22T06:56:20.246Z,37.67
2017-12-22T06:58:48.633Z,34.73
2017-12-22T07:01:17.012Z,31.77
2017-12-22T07:03:45.413Z,38.57
2017-12-22T07:06:13.747Z,35.47
2017-12-22T07:08:42.119Z,37.90
2017-12-22T07:11:10.469Z,39.20
2017-12-22T07:13:40.183Z,33.13
2017-12-22T07:16:08.687Z,34.87
2017-12-22T07:18:37.044Z,35.77
2017-12-22T07:21:06.157Z,38.37
2017-12-22T07:23:34.491Z,37.13
2017-12-22T07:26:02.865Z,36.23
2017-12-22T07:28:31.217Z,43.37
2017-12-22T07:30:59.584Z,45.37
2017-12-22T07:33:28.183Z,37.80
2017-12-22T07:35:56.560Z,38.70
2017-12-22T07:38:24.897Z,41.23
2017-12-22T07:40:54.008Z,36.93
2017-12-22T07:43:22.381Z,39.37
2017-12-22T07:45:50.760Z,35.57
2017-12-22T07:48:19.265Z,37.90
2017-12-22T07:50:47.621Z,37.20
2017-12-22T07:53:16.033Z,37.17
2017-12-22T07:55:45.207Z,38.67
2017-12-22T07:58:13.540Z,36.07
2017-12-22T08:00:41.889Z,40.27
2017-12-22T08:03:10.246Z,37.53
2017-12-22T08:05:38.653Z,39.37
2017-12-22T08:08:07.009Z,44.73
2017-12-22T08:10:35.351Z,41.07
2017-12-22T08:13:04.469Z,43.13
2017-12-22T08:15:32.808Z,36.27
2017-12-22T08:18:01.180Z,39.83
2017-12-22T08:20:29.519Z,38.30
2017-12-22T08:22:57.991Z,46.17
2017-12-22T08:25:26.349Z,44.30
2017-12-22T08:27:54.688Z,42.60
2017-12-22T08:30:23.025Z,42.37
2017-12-22T08:32:52.090Z,44.93
2017-12-22T08:35:21.261Z,46.07
2017-12-22T08:37:49.584Z,50.80
2017-12-22T08:40:18.699Z,59.33
2017-12-22T08:42:47.049Z,49.40
2017-12-22T08:45:16.155Z,47.97
2017-12-22T08:47:44.512Z,44.70
2017-12-22T08:50:12.834Z,49.93
2017-12-22T08:52:41.192Z,45.57
2017-12-22T08:55:09.543Z,47.43
2017-12-22T08:57:37.940Z,48.07
2017-12-22T09:00:07.742Z,47.33
2017-12-22T09:02:36.095Z,47.93
2017-12-22T09:05:04.441Z,41.40
2017-12-22T09:07:32.806Z,38.97
2017-12-22T09:10:01.139Z,36.50
2017-12-22T09:12:29.695Z,41.97
2017-12-22T09:14:58.015Z,38.17
2017-12-22T09:17:26.362Z,39.37
2017-12-22T09:19:54.706Z,40.17
2017-12-22T09:22:23.088Z,40.67
2017-12-22T09:24:51.490Z,36.63
2017-12-22T09:27:19.816Z,38.83
2017-12-22T09:29:48.233Z,42.33
2017-12-22T09:32:17.186Z,41.10
2017-12-22T09:34:45.773Z,39.90
2017-12-22T09:37:14.153Z,38.47
2017-12-22T09:39:42.491Z,33.73
2017-12-22T09:42:10.857Z,38.67
2017-12-22T09:44:39.245Z,38.23
2017-12-22T09:47:07.578Z,38.33
2017-12-22T09:49:36.693Z,41.47
2017-12-22T09:52:05.024Z,37.83
2017-12-22T09:54:33.532Z,35.63
2017-12-22T09:57:02.653Z,39.13
2017-12-22T09:59:31.035Z,32.17
2017-12-22T10:01:59.423Z,33.70
2017-12-22T10:04:27.780Z,40.23
2017-12-22T10:06:56.256Z,34.13
2017-12-22T10:09:24.602Z,31.77
2017-12-22T10:11:53.045Z,33.50
2017-12-22T10:14:21.363Z,29.80
2017-12-22T10:16:49.728Z,32.50
2017-12-22T10:19:18.144Z,32.50
2017-12-22T10:21:47.355Z,39.40
2017-12-22T10:24:16.467Z,35.23
2017-12-22T10:26:44.822Z,28.70
2017-12-22T10:29:14.152Z,23.77
2017-12-22T10:31:42.496Z,20.07
2017-12-22T10:34:11.615Z,11.93
2017-12-22T10:36:39.978Z,15.43
2017-12-22T10:39:08.282Z,10.67
2017-12-22T10:41:36.650Z,11.93
2017-12-22T10:44:04.998Z,11.93
2017-12-22T10:46:34.199Z,11.27
2017-12-22T10:49:03.291Z,11.83
2017-12-22T10:51:32.428Z,17.27
2017-12-22T10:54:00.757Z,12.80
2017-12-22T10:56:29.193Z,17.73
2017-12-22T10:58:57.562Z,19.33
2017-12-22T11:01:25.904Z,19.33
2017-12-22T11:03:54.327Z,16.53
2017-12-22T11:06:22.720Z,20.50
2017-12-22T11:08:51.053Z,22.53
2017-12-22T11:11:20.180Z,31.90
2017-12-22T11:13:48.517Z,31.70
2017-12-22T11:16:17.650Z,36.20
2017-12-22T11:18:45.993Z,35.33
2017-12-22T11:21:15.103Z,24.07
2017-12-22T11:23:44.242Z,23.13
2017-12-22T11:26:12.623Z,24.40
2017-12-22T11:28:40.977Z,24.23
2017-12-22T11:31:09.373Z,25.73
2017-12-22T11:33:38.362Z,24.63
2017-12-22T11:36:06.720Z,23.93
2017-12-22T11:38:35.084Z,23.67
2017-12-22T11:41:03.401Z,24.23
2017-12-22T11:43:31.764Z,27.23
2017-12-22T11:46:00.158Z,26.60
2017-12-22T11:48:28.524Z,29.73
2017-12-22T11:50:56.896Z,28.33
2017-12-22T11:53:25.228Z,29.03
2017-12-22T11:55:53.579Z,28.13
2017-12-22T11:58:21.916Z,32.33
2017-12-22T12:00:51.045Z,31.23
2017-12-22T12:03:19.384Z,33.23
2017-12-22T12:05:48.483Z,33.80
2017-12-22T12:08:17.604Z,33.90
2017-12-22T12:10:46.174Z,34.07
2017-12-22T12:13:14.473Z,28.97
2017-12-22T12:15:42.810Z,29.83
2017-12-22T12:18:11.957Z,33.60
2017-12-22T12:20:40.401Z,39.23
2017-12-22T12:23:09.533Z,37.33
2017-12-22T12:25:37.912Z,39.27
2017-12-22T12:28:06.257Z,40.00
2017-12-22T12:30:34.680Z,34.33
2017-12-22T12:33:03.005Z,43.50
2017-12-22T12:35:31.385Z,38.50
2017-12-22T12:38:00.506Z,37.93
2017-12-22T12:40:28.851Z,36.03
2017-12-22T12:42:57.198Z,41.80
2017-12-22T12:45:25.547Z,42.97
2017-12-22T12:47:53.892Z,39.10
2017-12-22T12:50:23.783Z,38.17
2017-12-22T12:52:52.202Z,35.83
2017-12-22T12:55:21.309Z,33.60
2017-12-22T12:57:49.674Z,36.73
2017-12-22T13:00:18.766Z,40.30
2017-12-22T13:02:47.876Z,37.87
2017-12-22T13:05:16.320Z,41.97
2017-12-22T13:07:44.623Z,48.43
2017-12-22T13:10:13.753Z,49.80
2017-12-22T13:12:42.145Z,50.00
2017-12-22T13:15:10.501Z,43.97
2017-12-22T13:17:38.889Z,48.33
2017-12-22T13:20:07.227Z,47.27
2017-12-22T13:22:36.354Z,47.43
2017-12-22T13:25:04.750Z,49.67
2017-12-22T13:27:33.147Z,46.50
2017-12-22T13:30:01.520Z,45.97
2017-12-22T13:32:29.869Z,49.33
2017-12-22T13:34:58.261Z,52.60
2017-12-22T13:37:26.641Z,48.97
2017-12-22T13:39:55.157Z,46.00
2017-12-22T13:42:23.510Z,43.80
2017-12-22T13:44:51.858Z,45.60
2017-12-22T13:47:20.213Z,37.03
2017-12-22T13:49:48.562Z,39.13
2017-12-22T13:52:16.922Z,32.73
2017-12-22T13:54:45.255Z,30.77
2017-12-22T13:57:13.693Z,24.23
2017-12-22T13:59:42.041Z,24.23
2017-12-22T14:02:10.398Z,20.93
2017-12-22T14:04:39.527Z,21.03
2017-12-22T14:07:07.882Z,22.37
2017-12-22T14:09:36.975Z,19.40
2017-12-22T14:12:06.253Z,17.20
2017-12-22T14:14:34.690Z,17.33
2017-12-22T14:17:03.032Z,13.70
2017-12-22T14:19:32.226Z,15.90
2017-12-22T14:22:00.561Z,21.17
2017-12-22T14:24:29.019Z,18.00
2017-12-22T14:26:57.364Z,19.03
2017-12-22T14:29:26.509Z,21.57
2017-12-22T14:31:54.859Z,19.57
2017-12-22T14:34:23.185Z,14.87
2017-12-22T14:36:51.537Z,17.83
2017-12-22T14:39:19.910Z,15.37
2017-12-22T14:41:49.128Z,18.50
2017-12-22T14:44:17.445Z,22.17
2017-12-22T14:46:45.977Z,19.53
2017-12-22T14:49:14.320Z,22.60
2017-12-22T14:51:43.439Z,24.27
2017-12-22T14:54:11.941Z,21.00
2017-12-22T14:56:40.814Z,20.70
2017-12-22T14:59:09.171Z,20.97
2017-12-22T15:01:38.264Z,22.53
2017-12-22T15:04:06.635Z,28.27
2017-12-22T15:06:35.776Z,24.77
2017-12-22T15:09:04.122Z,30.23
2017-12-22T15:11:32.533Z,33.07
2017-12-22T15:14:00.916Z,26.93
2017-12-22T15:16:29.899Z,31.30
2017-12-22T15:18:58.251Z,32.53
2017-12-22T15:21:27.415Z,29.90
2017-12-22T15:23:55.761Z,31.70
2017-12-22T15:26:24.113Z,32.00
2017-12-22T15:28:52.539Z,29.23
2017-12-22T15:31:20.893Z,31.63
2017-12-22T15:33:49.459Z,31.17
2017-12-22T15:36:17.903Z,32.57
2017-12-22T15:38:46.252Z,31.13
2017-12-22T15:41:14.636Z,28.60
2017-12-22T15:43:43.023Z,31.53
2017-12-22T15:46:11.393Z,22.43
2017-12-22T15:48:39.733Z,25.97
2017-12-22T15:51:08.145Z,25.30
2017-12-22T15:53:36.498Z,28.90
2017-12-22T15:56:04.883Z,23.93
2017-12-22T15:58:33.348Z,24.07
2017-12-22T16:01:01.684Z,23.43
2017-12-22T16:03:30.024Z,21.07
2017-12-22T16:05:58.412Z,21.93
2017-12-22T16:08:26.751Z,23.60
2017-12-22T16:10:55.875Z,23.77
2017-12-22T16:13:24.384Z,23.60
2017-12-22T16:15:52.868Z,25.83
2017-12-22T16:18:21.272Z,25.70
2017-12-22T16:20:49.621Z,28.13
2017-12-22T16:23:18.048Z,24.43
2017-12-22T16:25:46.415Z,25.03
2017-12-22T16:28:14.863Z,25.37
2017-12-22T16:30:43.209Z,25.57
2017-12-22T16:33:11.612Z,28.97
2017-12-22T16:35:39.957Z,21.93
2017-12-22T16:38:09.074Z,28.10
2017-12-22T16:40:37.416Z,27.30
2017-12-22T16:43:06.363Z,26.67
2017-12-22T16:45:34.696Z,30.90
2017-12-22T16:48:03.846Z,29.20
2017-12-22T16:50:32.198Z,28.83
2017-12-22T16:53:00.528Z,28.63
2017-12-22T16:55:28.888Z,26.60
2017-12-22T16:57:57.248Z,30.67
2017-12-22T17:00:25.612Z,29.90
2017-12-22T17:02:54.460Z,27.77
2017-12-22T17:05:22.875Z,29.63
2017-12-22T17:07:51.300Z,28.77
2017-12-22T17:10:19.657Z,32.47
2017-12-22T17:12:48.008Z,30.60
2017-12-22T17:15:16.417Z,31.80
2017-12-22T17:17:44.772Z,26.33
2017-12-22T17:20:13.169Z,29.93
2017-12-22T17:22:41.533Z,29.43
2017-12-22T17:25:09.862Z,30.30
2017-12-22T17:27:38.239Z,30.30
2017-12-22T17:30:06.591Z,33.90
2017-12-22T17:32:34.971Z,30.40
2017-12-22T17:35:03.354Z,28.93
2017-12-22T17:37:31.895Z,30.80
2017-12-22T17:40:01.130Z,32.37
2017-12-22T17:42:29.472Z,30.87
2017-12-22T17:44:58.597Z,35.87
2017-12-22T17:47:26.968Z,26.30
2017-12-22T17:49:55.315Z,30.93
2017-12-22T17:52:24.493Z,30.47
2017-12-22T17:54:53.010Z,31.10
2017-12-22T17:57:22.200Z,29.43
2017-12-22T17:59:50.617Z,27.60
2017-12-22T18:02:19.000Z,29.30
2017-12-22T18:04:47.350Z,29.47
2017-12-22T18:07:15.815Z,26.67
2017-12-22T18:09:45.560Z,29.23
2017-12-22T18:12:13.944Z,27.97
2017-12-22T18:14:42.393Z,30.97
2017-12-22T18:17:10.801Z,26.63
2017-12-22T18:19:39.153Z,25.97
2017-12-22T18:22:08.312Z,25.40
2017-12-22T18:24:36.668Z,26.63
2017-12-22T18:27:05.198Z,23.67
2017-12-22T18:29:33.547Z,22.97
2017-12-22T18:32:01.896Z,21.57
2017-12-22T18:34:30.285Z,21.73
2017-12-22T18:36:58.780Z,26.20
2017-12-22T18:39:27.156Z,21.30
2017-12-22T18:41:55.515Z,21.77
2017-12-22T18:44:23.878Z,21.53
2017-12-22T18:46:52.305Z,22.90
2017-12-22T18:49:20.654Z,20.70
2017-12-22T18:51:49.019Z,21.83
2017-12-22T18:54:17.384Z,17.73
2017-12-22T18:56:45.731Z,23.63
2017-12-22T18:59:14.104Z,16.30
2017-12-22T19:01:42.461Z,20.33
2017-12-22T19:04:10.832Z,17.47
2017-12-22T19:06:39.257Z,17.87
2017-12-22T19:09:07.574Z,17.27
2017-12-22T19:11:35.933Z,17.40
2017-12-22T19:14:04.312Z,19.60
2017-12-22T19:16:33.522Z,17.90
2017-12-22T19:19:02.727Z,17.63
2017-12-22T19:21:31.117Z,16.30
2017-12-22T19:23:59.692Z,13.20
2017-12-22T19:26:28.876Z,18.10
2017-12-22T19:28:58.103Z,15.50
2017-12-22T19:31:26.476Z,15.53
2017-12-22T19:33:54.880Z,35.33
2017-12-22T19:36:23.268Z,14.93
2017-12-22T19:38:51.657Z,22.90
2017-12-22T19:41:20.038Z,22.37
2017-12-22T19:43:48.397Z,15.13
2017-12-22T19:46:16.912Z,19.23
2017-12-22T19:48:45.296Z,18.77
2017-12-22T19:51:13.653Z,17.07
2017-12-22T19:53:41.996Z,16.13
2017-12-22T19:56:10.373Z,17.87
2017-12-22T19:58:38.798Z,17.90
2017-12-22T20:01:07.168Z,14.57
2017-12-22T20:03:36.075Z,18.93
2017-12-22T20:06:04.470Z,17.47
2017-12-22T20:08:32.808Z,20.97
2017-12-22T20:11:01.201Z,14.73
2017-12-22T20:13:29.567Z,17.47
2017-12-22T20:15:57.920Z,16.00
2017-12-22T20:18:26.307Z,17.10
2017-12-22T20:20:54.713Z,13.63
2017-12-22T20:23:23.073Z,16.17
2017-12-22T20:25:51.424Z,16.03
2017-12-22T20:28:20.571Z,14.67
2017-12-22T20:30:48.913Z,15.80
2017-12-22T20:33:17.381Z,20.73
2017-12-22T20:35:46.604Z,16.10
2017-12-22T20:38:14.952Z,15.97
2017-12-22T20:40:43.416Z,14.30
2017-12-22T20:43:12.578Z,17.70
2017-12-22T20:45:40.910Z,14.10
2017-12-22T20:48:10.045Z,16.87
2017-12-22T20:50:38.474Z,15.67
2017-12-22T20:53:07.611Z,18.87
2017-12-22T20:55:35.966Z,15.17
2017-12-22T20:58:04.430Z,17.33
2017-12-22T21:00:33.565Z,17.70
2017-12-22T21:03:01.987Z,18.10
2017-12-22T21:05:30.423Z,19.90
2017-12-22T21:07:58.753Z,16.73
2017-12-22T21:10:27.132Z,20.00
2017-12-22T21:12:55.488Z,19.10
2017-12-22T21:15:23.854Z,17.77
2017-12-22T21:17:52.203Z,19.50
2017-12-22T21:20:20.550Z,21.90
2017-12-22T21:22:48.929Z,19.73
2017-12-22T21:25:17.256Z,21.53
2017-12-22T21:27:45.858Z,19.33
2017-12-22T21:30:14.242Z,19.13
2017-12-22T21:32:42.573Z,19.87
2017-12-22T21:35:11.715Z,18.77
2017-12-22T21:37:40.096Z,15.80
2017-12-22T21:40:08.431Z,13.97
2017-12-22T21:42:37.621Z,16.23
2017-12-22T21:45:06.721Z,16.03
2017-12-22T21:47:35.873Z,16.10
2017-12-22T21:50:04.206Z,19.27
2017-12-22T21:52:32.676Z,18.17
2017-12-22T21:55:01.986Z,19.10
2017-12-22T21:57:31.082Z,20.03
2017-12-22T21:59:59.457Z,25.40
2017-12-22T22:02:27.807Z,19.10
2017-12-22T22:04:56.135Z,20.27
2017-12-22T22:07:24.491Z,25.20
2017-12-22T22:09:52.832Z,26.23
2017-12-22T22:12:21.204Z,27.77
2017-12-22T22:14:49.557Z,29.17
2017-12-22T22:17:17.937Z,28.03
2017-12-22T22:19:46.315Z,31.73
2017-12-22T22:22:14.693Z,32.60
2017-12-22T22:24:43.061Z,31.50
2017-12-22T22:27:11.444Z,33.77
2017-12-22T22:29:39.799Z,36.13
2017-12-22T22:32:08.158Z,34.53
2017-12-22T22:34:36.500Z,36.77
2017-12-22T22:37:04.865Z,36.10
2017-12-22T22:39:33.297Z,34.27
2017-12-22T22:42:02.418Z,39.47
2017-12-22T22:44:30.774Z,37.20
2017-12-22T22:46:59.903Z,39.70
2017-12-22T22:49:28.263Z,40.63
2017-12-22T22:51:56.651Z,40.20
2017-12-22T22:54:25.797Z,38.17
2017-12-22T22:56:54.293Z,44.77
2017-12-22T22:59:22.667Z,42.63
2017-12-22T23:01:51.027Z,44.83
2017-12-22T23:04:19.370Z,43.73
2017-12-22T23:06:47.725Z,44.03
2017-12-22T23:09:16.845Z,49.30
2017-12-22T23:11:45.209Z,44.47
2017-12-22T23:14:14.315Z,51.37
2017-12-22T23:16:42.752Z,44.50
2017-12-22T23:19:11.108Z,41.50
2017-12-22T23:21:39.668Z,44.50
2017-12-22T23:24:08.063Z,45.60
2017-12-22T23:26:36.412Z,45.90
2017-12-22T23:29:04.752Z,46.07
2017-12-22T23:34:33.807Z,50.00
2017-12-22T23:37:02.308Z,45.53
2017-12-22T23:39:30.706Z,46.03
2017-12-22T23:41:59.069Z,48.37
2017-12-22T23:44:27.444Z,50.40
2017-12-22T23:46:55.768Z,51.87
2017-12-22T23:49:24.104Z,46.57
2017-12-22T23:51:52.452Z,50.70
2017-12-22T23:54:21.580Z,51.20
2017-12-22T23:56:50.055Z,51.80
2017-12-22T23:59:18.677Z,59.83
